sensor_id;sensor_type;location;lat;lon;timestamp;P1;durP1;ratioP1;P2;durP2;ratioP2
65469;SDS011;52067;50.710;14.492;2023-04-01T00:02:16;4.93;;;1.67;;
65469;SDS011;52067;50.710;14.492;2023-04-01T00:04:42;3.17;;;1.83;;
65469;SDS011;52067;50.710;14.492;2023-04-01T00:07:08;8.15;;;2.03;;
65469;SDS011;52067;50.710;14.492;2023-04-01T00:09:34;5.40;;;1.63;;
65469;SDS011;52067;50.710;14.492;2023-04-01T00:12:00;5.45;;;2.00;;
65469;SDS011;52067;50.710;14.492;2023-04-01T00:14:25;4.72;;;2.08;;
65469;SDS011;52067;50.710;14.492;2023-04-01T00:16:51;5.05;;;1.83;;
65469;SDS011;52067;50.710;14.492;2023-04-01T00:19:17;6.22;;;1.85;;
65469;SDS011;52067;50.710;14.492;2023-04-01T00:21:43;6.22;;;2.03;;
65469;SDS011;52067;50.710;14.492;2023-04-01T00:24:08;6.60;;;2.33;;
65469;SDS011;52067;50.710;14.492;2023-04-01T00:26:34;6.75;;;2.63;;
65469;SDS011;52067;50.710;14.492;2023-04-01T00:28:59;7.20;;;3.20;;
65469;SDS011;52067;50.710;14.492;2023-04-01T00:31:25;9.30;;;2.50;;
65469;SDS011;52067;50.710;14.492;2023-04-01T00:33:51;9.88;;;1.98;;
65469;SDS011;52067;50.710;14.492;2023-04-01T00:36:17;5.25;;;1.95;;
65469;SDS011;52067;50.710;14.492;2023-04-01T00:38:45;7.40;;;2.10;;
65469;SDS011;52067;50.710;14.492;2023-04-01T00:41:11;6.47;;;2.00;;
65469;SDS011;52067;50.710;14.492;2023-04-01T00:43:40;6.95;;;2.08;;
65469;SDS011;52067;50.710;14.492;2023-04-01T00:46:06;6.13;;;2.13;;
65469;SDS011;52067;50.710;14.492;2023-04-01T00:48:39;5.88;;;1.90;;
65469;SDS011;52067;50.710;14.492;2023-04-01T00:51:14;11.50;;;2.38;;
65469;SDS011;52067;50.710;14.492;2023-04-01T00:53:49;6.95;;;2.25;;
65469;SDS011;52067;50.710;14.492;2023-04-01T00:56:19;5.50;;;2.20;;
65469;SDS011;52067;50.710;14.492;2023-04-01T00:58:48;5.18;;;2.17;;
65469;SDS011;52067;50.710;14.492;2023-04-01T01:01:20;5.28;;;2.22;;
65469;SDS011;52067;50.710;14.492;2023-04-01T01:03:46;19.05;;;6.20;;
65469;SDS011;52067;50.710;14.492;2023-04-01T01:11:35;16.33;;;5.45;;
65469;SDS011;52067;50.710;14.492;2023-04-01T01:16:43;14.30;;;5.65;;
65469;SDS011;52067;50.710;14.492;2023-04-01T01:25:07;12.10;;;3.83;;
65469;SDS011;52067;50.710;14.492;2023-04-01T01:27:38;13.30;;;4.10;;
65469;SDS011;52067;50.710;14.492;2023-04-01T01:30:21;9.80;;;3.92;;
65469;SDS011;52067;50.710;14.492;2023-04-01T01:33:09;11.63;;;3.85;;
65469;SDS011;52067;50.710;14.492;2023-04-01T01:35:54;7.78;;;3.25;;
65469;SDS011;52067;50.710;14.492;2023-04-01T01:38:23;7.07;;;3.15;;
65469;SDS011;52067;50.710;14.492;2023-04-01T01:40:52;10.45;;;3.60;;
65469;SDS011;52067;50.710;14.492;2023-04-01T01:43:22;8.10;;;3.58;;
65469;SDS011;52067;50.710;14.492;2023-04-01T01:45:57;9.63;;;3.63;;
65469;SDS011;52067;50.710;14.492;2023-04-01T01:48:26;9.05;;;4.05;;
65469;SDS011;52067;50.710;14.492;2023-04-01T01:50:54;15.40;;;5.85;;
65469;SDS011;52067;50.710;14.492;2023-04-01T01:53:20;19.75;;;6.82;;
65469;SDS011;52067;50.710;14.492;2023-04-01T01:55:46;21.00;;;8.98;;
65469;SDS011;52067;50.710;14.492;2023-04-01T02:00:55;20.10;;;8.30;;
65469;SDS011;52067;50.710;14.492;2023-04-01T02:03:24;23.08;;;8.38;;
65469;SDS011;52067;50.710;14.492;2023-04-01T02:05:52;31.02;;;10.75;;
65469;SDS011;52067;50.710;14.492;2023-04-01T02:08:31;29.73;;;9.48;;
65469;SDS011;52067;50.710;14.492;2023-04-01T02:11:02;23.33;;;8.70;;
65469;SDS011;52067;50.710;14.492;2023-04-01T02:13:33;34.05;;;10.10;;
65469;SDS011;52067;50.710;14.492;2023-04-01T02:16:08;20.00;;;8.02;;
65469;SDS011;52067;50.710;14.492;2023-04-01T02:18:42;20.15;;;8.05;;
65469;SDS011;52067;50.710;14.492;2023-04-01T02:21:12;22.95;;;9.02;;
65469;SDS011;52067;50.710;14.492;2023-04-01T02:23:39;34.97;;;10.60;;
65469;SDS011;52067;50.710;14.492;2023-04-01T02:26:06;49.13;;;16.65;;
65469;SDS011;52067;50.710;14.492;2023-04-01T02:28:33;43.35;;;13.20;;
65469;SDS011;52067;50.710;14.492;2023-04-01T02:31:01;48.10;;;13.73;;
65469;SDS011;52067;50.710;14.492;2023-04-01T02:33:28;45.08;;;12.45;;
65469;SDS011;52067;50.710;14.492;2023-04-01T02:35:55;41.25;;;12.13;;
65469;SDS011;52067;50.710;14.492;2023-04-01T02:38:22;51.22;;;13.15;;
65469;SDS011;52067;50.710;14.492;2023-04-01T02:40:49;31.30;;;9.15;;
65469;SDS011;52067;50.710;14.492;2023-04-01T02:43:16;33.20;;;9.45;;
65469;SDS011;52067;50.710;14.492;2023-04-01T02:45:43;25.75;;;7.25;;
65469;SDS011;52067;50.710;14.492;2023-04-01T02:48:08;19.15;;;6.88;;
65469;SDS011;52067;50.710;14.492;2023-04-01T02:50:34;22.33;;;7.75;;
65469;SDS011;52067;50.710;14.492;2023-04-01T02:53:00;21.45;;;7.15;;
65469;SDS011;52067;50.710;14.492;2023-04-01T02:55:26;19.33;;;7.13;;
65469;SDS011;52067;50.710;14.492;2023-04-01T02:57:51;24.33;;;7.55;;
65469;SDS011;52067;50.710;14.492;2023-04-01T03:00:17;23.20;;;7.18;;
65469;SDS011;52067;50.710;14.492;2023-04-01T03:02:42;20.95;;;6.05;;
65469;SDS011;52067;50.710;14.492;2023-04-01T03:05:09;16.40;;;5.88;;
65469;SDS011;52067;50.710;14.492;2023-04-01T03:07:35;12.85;;;5.57;;
65469;SDS011;52067;50.710;14.492;2023-04-01T03:10:00;9.70;;;4.10;;
65469;SDS011;52067;50.710;14.492;2023-04-01T03:12:26;11.77;;;5.03;;
65469;SDS011;52067;50.710;14.492;2023-04-01T03:14:51;9.90;;;4.43;;
65469;SDS011;52067;50.710;14.492;2023-04-01T03:17:16;10.50;;;4.20;;
65469;SDS011;52067;50.710;14.492;2023-04-01T03:19:42;12.45;;;4.38;;
65469;SDS011;52067;50.710;14.492;2023-04-01T03:22:08;12.68;;;4.40;;
65469;SDS011;52067;50.710;14.492;2023-04-01T03:24:36;10.80;;;4.10;;
65469;SDS011;52067;50.710;14.492;2023-04-01T03:27:01;11.40;;;4.13;;
65469;SDS011;52067;50.710;14.492;2023-04-01T03:29:27;10.48;;;3.83;;
65469;SDS011;52067;50.710;14.492;2023-04-01T03:31:52;11.35;;;4.15;;
65469;SDS011;52067;50.710;14.492;2023-04-01T03:34:17;11.98;;;4.18;;
65469;SDS011;52067;50.710;14.492;2023-04-01T03:36:43;6.50;;;3.65;;
65469;SDS011;52067;50.710;14.492;2023-04-01T03:39:08;7.65;;;3.75;;
65469;SDS011;52067;50.710;14.492;2023-04-01T03:41:35;9.18;;;3.78;;
65469;SDS011;52067;50.710;14.492;2023-04-01T03:44:02;7.22;;;3.90;;
65469;SDS011;52067;50.710;14.492;2023-04-01T03:46:28;7.32;;;3.83;;
65469;SDS011;52067;50.710;14.492;2023-04-01T03:48:53;5.97;;;3.50;;
65469;SDS011;52067;50.710;14.492;2023-04-01T03:51:18;9.95;;;4.07;;
65469;SDS011;52067;50.710;14.492;2023-04-01T03:53:44;7.57;;;4.22;;
65469;SDS011;52067;50.710;14.492;2023-04-01T03:56:10;10.13;;;4.63;;
65469;SDS011;52067;50.710;14.492;2023-04-01T03:58:36;14.88;;;6.43;;
65469;SDS011;52067;50.710;14.492;2023-04-01T04:01:01;10.45;;;5.55;;
65469;SDS011;52067;50.710;14.492;2023-04-01T04:03:27;13.60;;;6.25;;
65469;SDS011;52067;50.710;14.492;2023-04-01T04:05:53;10.88;;;5.25;;
65469;SDS011;52067;50.710;14.492;2023-04-01T04:08:18;11.43;;;5.68;;
65469;SDS011;52067;50.710;14.492;2023-04-01T04:10:43;12.30;;;6.07;;
65469;SDS011;52067;50.710;14.492;2023-04-01T04:13:09;10.65;;;5.47;;
65469;SDS011;52067;50.710;14.492;2023-04-01T04:15:35;8.45;;;4.78;;
65469;SDS011;52067;50.710;14.492;2023-04-01T04:18:00;9.40;;;5.05;;
65469;SDS011;52067;50.710;14.492;2023-04-01T04:20:26;11.18;;;5.10;;
65469;SDS011;52067;50.710;14.492;2023-04-01T04:22:51;17.95;;;6.18;;
65469;SDS011;52067;50.710;14.492;2023-04-01T04:25:17;24.27;;;7.35;;
65469;SDS011;52067;50.710;14.492;2023-04-01T04:27:42;23.75;;;7.80;;
65469;SDS011;52067;50.710;14.492;2023-04-01T04:30:08;27.50;;;7.60;;
65469;SDS011;52067;50.710;14.492;2023-04-01T04:32:34;26.13;;;8.70;;
65469;SDS011;52067;50.710;14.492;2023-04-01T04:35:00;27.00;;;8.70;;
65469;SDS011;52067;50.710;14.492;2023-04-01T04:37:25;24.90;;;7.78;;
65469;SDS011;52067;50.710;14.492;2023-04-01T04:39:51;35.00;;;9.50;;
65469;SDS011;52067;50.710;14.492;2023-04-01T04:42:16;31.30;;;9.75;;
65469;SDS011;52067;50.710;14.492;2023-04-01T04:44:42;28.02;;;9.48;;
65469;SDS011;52067;50.710;14.492;2023-04-01T04:47:07;22.27;;;7.82;;
65469;SDS011;52067;50.710;14.492;2023-04-01T04:49:33;24.17;;;7.43;;
65469;SDS011;52067;50.710;14.492;2023-04-01T04:51:58;24.02;;;7.63;;
65469;SDS011;52067;50.710;14.492;2023-04-01T04:54:23;23.95;;;7.75;;
65469;SDS011;52067;50.710;14.492;2023-04-01T04:56:50;20.80;;;7.35;;
65469;SDS011;52067;50.710;14.492;2023-04-01T04:59:17;19.15;;;7.00;;
65469;SDS011;52067;50.710;14.492;2023-04-01T05:01:42;17.00;;;5.78;;
65469;SDS011;52067;50.710;14.492;2023-04-01T05:04:07;21.45;;;6.78;;
65469;SDS011;52067;50.710;14.492;2023-04-01T05:06:33;21.77;;;9.55;;
65469;SDS011;52067;50.710;14.492;2023-04-01T05:08:58;18.13;;;9.13;;
65469;SDS011;52067;50.710;14.492;2023-04-01T05:11:24;20.63;;;7.38;;
65469;SDS011;52067;50.710;14.492;2023-04-01T05:13:50;19.85;;;8.13;;
65469;SDS011;52067;50.710;14.492;2023-04-01T05:16:17;25.17;;;9.02;;
65469;SDS011;52067;50.710;14.492;2023-04-01T05:18:44;14.43;;;5.93;;
65469;SDS011;52067;50.710;14.492;2023-04-01T05:21:11;15.52;;;6.03;;
65469;SDS011;52067;50.710;14.492;2023-04-01T05:23:38;18.25;;;6.20;;
65469;SDS011;52067;50.710;14.492;2023-04-01T05:26:07;17.08;;;7.60;;
65469;SDS011;52067;50.710;14.492;2023-04-01T05:28:35;15.05;;;7.35;;
65469;SDS011;52067;50.710;14.492;2023-04-01T05:31:01;25.73;;;8.75;;
65469;SDS011;52067;50.710;14.492;2023-04-01T05:33:30;18.38;;;8.10;;
65469;SDS011;52067;50.710;14.492;2023-04-01T05:35:56;19.55;;;8.82;;
65469;SDS011;52067;50.710;14.492;2023-04-01T05:38:29;20.63;;;9.05;;
65469;SDS011;52067;50.710;14.492;2023-04-01T05:40:58;24.50;;;9.45;;
65469;SDS011;52067;50.710;14.492;2023-04-01T05:43:25;22.80;;;9.43;;
65469;SDS011;52067;50.710;14.492;2023-04-01T05:45:50;22.33;;;9.35;;
65469;SDS011;52067;50.710;14.492;2023-04-01T05:48:15;20.27;;;9.45;;
65469;SDS011;52067;50.710;14.492;2023-04-01T05:50:41;20.98;;;9.95;;
65469;SDS011;52067;50.710;14.492;2023-04-01T05:53:07;34.00;;;13.63;;
65469;SDS011;52067;50.710;14.492;2023-04-01T05:55:34;30.98;;;14.98;;
65469;SDS011;52067;50.710;14.492;2023-04-01T05:58:00;26.80;;;12.32;;
65469;SDS011;52067;50.710;14.492;2023-04-01T06:00:26;24.55;;;11.15;;
65469;SDS011;52067;50.710;14.492;2023-04-01T06:02:51;24.38;;;9.88;;
65469;SDS011;52067;50.710;14.492;2023-04-01T06:05:24;21.60;;;9.55;;
65469;SDS011;52067;50.710;14.492;2023-04-01T06:08:00;43.40;;;18.70;;
65469;SDS011;52067;50.710;14.492;2023-04-01T06:11:17;29.58;;;12.77;;
65469;SDS011;52067;50.710;14.492;2023-04-01T06:21:30;20.65;;;10.60;;
65469;SDS011;52067;50.710;14.492;2023-04-01T06:29:36;17.60;;;9.77;;
65469;SDS011;52067;50.710;14.492;2023-04-01T06:32:16;16.75;;;9.45;;
65469;SDS011;52067;50.710;14.492;2023-04-01T06:37:58;19.95;;;9.73;;
65469;SDS011;52067;50.710;14.492;2023-04-01T06:43:28;22.50;;;10.07;;
65469;SDS011;52067;50.710;14.492;2023-04-01T06:46:09;29.52;;;11.95;;
65469;SDS011;52067;50.710;14.492;2023-04-01T06:54:16;33.85;;;12.88;;
65469;SDS011;52067;50.710;14.492;2023-04-01T06:56:45;50.05;;;14.70;;
65469;SDS011;52067;50.710;14.492;2023-04-01T06:59:19;157.38;;;33.20;;
65469;SDS011;52067;50.710;14.492;2023-04-01T07:01:53;190.55;;;41.50;;
65469;SDS011;52067;50.710;14.492;2023-04-01T07:04:35;146.75;;;32.13;;
65469;SDS011;52067;50.710;14.492;2023-04-01T07:07:05;442.83;;;120.82;;
65469;SDS011;52067;50.710;14.492;2023-04-01T07:12:11;165.65;;;46.70;;
65469;SDS011;52067;50.710;14.492;2023-04-01T07:14:44;46.67;;;18.38;;
65469;SDS011;52067;50.710;14.492;2023-04-01T07:17:15;22.17;;;10.18;;
65469;SDS011;52067;50.710;14.492;2023-04-01T07:24:49;7.13;;;2.05;;
65469;SDS011;52067;50.710;14.492;2023-04-01T07:27:15;5.55;;;1.77;;
65469;SDS011;52067;50.710;14.492;2023-04-01T07:29:41;4.97;;;1.60;;
65469;SDS011;52067;50.710;14.492;2023-04-01T07:35:05;4.32;;;1.95;;
65469;SDS011;52067;50.710;14.492;2023-04-01T07:37:42;5.50;;;1.55;;
65469;SDS011;52067;50.710;14.492;2023-04-01T07:40:17;2.70;;;1.30;;
65469;SDS011;52067;50.710;14.492;2023-04-01T07:43:09;3.35;;;1.48;;
65469;SDS011;52067;50.710;14.492;2023-04-01T07:51:10;4.30;;;1.48;;
65469;SDS011;52067;50.710;14.492;2023-04-01T08:06:47;6.30;;;1.70;;
65469;SDS011;52067;50.710;14.492;2023-04-01T08:17:45;2.83;;;1.35;;
65469;SDS011;52067;50.710;14.492;2023-04-01T08:26:10;5.30;;;1.58;;
65469;SDS011;52067;50.710;14.492;2023-04-01T08:29:02;6.90;;;1.77;;
65469;SDS011;52067;50.710;14.492;2023-04-01T08:31:41;4.15;;;1.70;;
65469;SDS011;52067;50.710;14.492;2023-04-01T08:34:11;5.00;;;1.77;;
65469;SDS011;52067;50.710;14.492;2023-04-01T08:36:43;2.90;;;1.50;;
65469;SDS011;52067;50.710;14.492;2023-04-01T08:39:57;2.22;;;1.45;;
65469;SDS011;52067;50.710;14.492;2023-04-01T08:58:35;3.55;;;1.50;;
65469;SDS011;52067;50.710;14.492;2023-04-01T09:01:17;4.43;;;1.55;;
65469;SDS011;52067;50.710;14.492;2023-04-01T09:08:55;5.47;;;1.65;;
65469;SDS011;52067;50.710;14.492;2023-04-01T09:27:14;1.52;;;1.10;;
65469;SDS011;52067;50.710;14.492;2023-04-01T09:30:06;5.75;;;1.45;;
65469;SDS011;52067;50.710;14.492;2023-04-01T09:54:49;3.35;;;1.50;;
65469;SDS011;52067;50.710;14.492;2023-04-01T10:02:44;3.55;;;1.50;;
65469;SDS011;52067;50.710;14.492;2023-04-01T10:14:06;1.17;;;1.05;;
65469;SDS011;52067;50.710;14.492;2023-04-01T10:28:24;4.15;;;1.27;;
65469;SDS011;52067;50.710;14.492;2023-04-01T10:51:20;3.83;;;1.60;;
65469;SDS011;52067;50.710;14.492;2023-04-01T11:13:27;2.97;;;1.55;;
65469;SDS011;52067;50.710;14.492;2023-04-01T11:35:46;4.07;;;1.38;;
65469;SDS011;52067;50.710;14.492;2023-04-01T11:46:49;2.22;;;1.00;;
65469;SDS011;52067;50.710;14.492;2023-04-01T11:49:40;1.30;;;0.90;;
65469;SDS011;52067;50.710;14.492;2023-04-01T12:00:47;2.42;;;1.10;;
65469;SDS011;52067;50.710;14.492;2023-04-01T12:09:20;2.13;;;1.08;;
65469;SDS011;52067;50.710;14.492;2023-04-01T12:12:03;2.23;;;1.27;;
65469;SDS011;52067;50.710;14.492;2023-04-01T12:15:00;2.42;;;1.02;;
65469;SDS011;52067;50.710;14.492;2023-04-01T12:17:56;1.65;;;1.00;;
65469;SDS011;52067;50.710;14.492;2023-04-01T12:21:09;2.38;;;1.40;;
65469;SDS011;52067;50.710;14.492;2023-04-01T12:32:14;7.95;;;2.78;;
65469;SDS011;52067;50.710;14.492;2023-04-01T12:34:57;2.70;;;1.45;;
65469;SDS011;52067;50.710;14.492;2023-04-01T12:45:34;6.15;;;2.80;;
65469;SDS011;52067;50.710;14.492;2023-04-01T12:59:34;6.50;;;2.60;;
65469;SDS011;52067;50.710;14.492;2023-04-01T13:19:32;1.10;;;0.98;;
65469;SDS011;52067;50.710;14.492;2023-04-01T13:22:24;1.55;;;1.00;;
65469;SDS011;52067;50.710;14.492;2023-04-01T13:27:49;1.75;;;1.20;;
65469;SDS011;52067;50.710;14.492;2023-04-01T13:43:43;3.80;;;1.60;;
65469;SDS011;52067;50.710;14.492;2023-04-01T13:51:45;5.38;;;2.00;;
65469;SDS011;52067;50.710;14.492;2023-04-01T13:57:25;3.88;;;2.53;;
65469;SDS011;52067;50.710;14.492;2023-04-01T14:05:56;2.88;;;1.50;;
65469;SDS011;52067;50.710;14.492;2023-04-01T14:17:23;6.05;;;2.70;;
65469;SDS011;52067;50.710;14.492;2023-04-01T14:35:25;7.60;;;4.30;;
65469;SDS011;52067;50.710;14.492;2023-04-01T14:38:28;9.10;;;3.80;;
65469;SDS011;52067;50.710;14.492;2023-04-01T14:43:44;5.38;;;2.50;;
65469;SDS011;52067;50.710;14.492;2023-04-01T14:46:36;4.85;;;2.53;;
65469;SDS011;52067;50.710;14.492;2023-04-01T14:49:17;4.78;;;2.50;;
65469;SDS011;52067;50.710;14.492;2023-04-01T14:51:46;7.38;;;3.38;;
65469;SDS011;52067;50.710;14.492;2023-04-01T14:54:13;6.70;;;2.45;;
65469;SDS011;52067;50.710;14.492;2023-04-01T14:56:49;4.18;;;2.30;;
65469;SDS011;52067;50.710;14.492;2023-04-01T14:59:49;3.72;;;2.40;;
65469;SDS011;52067;50.710;14.492;2023-04-01T15:07:46;7.50;;;4.00;;
65469;SDS011;52067;50.710;14.492;2023-04-01T15:13:14;3.42;;;1.60;;
65469;SDS011;52067;50.710;14.492;2023-04-01T15:20:47;1.40;;;1.00;;
65469;SDS011;52067;50.710;14.492;2023-04-01T15:26:20;6.63;;;1.00;;
65469;SDS011;52067;50.710;14.492;2023-04-01T15:31:48;3.78;;;1.10;;
65469;SDS011;52067;50.710;14.492;2023-04-01T15:59:38;5.28;;;2.60;;
65469;SDS011;52067;50.710;14.492;2023-04-01T16:05:09;11.15;;;4.93;;
65469;SDS011;52067;50.710;14.492;2023-04-01T16:22:06;9.02;;;4.53;;
65469;SDS011;52067;50.710;14.492;2023-04-01T16:24:41;10.82;;;5.43;;
65469;SDS011;52067;50.710;14.492;2023-04-01T16:32:17;13.90;;;8.20;;
65469;SDS011;52067;50.710;14.492;2023-04-01T16:42:57;15.45;;;7.18;;
65469;SDS011;52067;50.710;14.492;2023-04-01T16:48:10;10.48;;;6.00;;
65469;SDS011;52067;50.710;14.492;2023-04-01T16:58:36;19.23;;;10.82;;
65469;SDS011;52067;50.710;14.492;2023-04-01T17:01:21;17.90;;;9.77;;
65469;SDS011;52067;50.710;14.492;2023-04-01T17:03:52;16.85;;;10.38;;
65469;SDS011;52067;50.710;14.492;2023-04-01T17:14:44;21.40;;;9.70;;
65469;SDS011;52067;50.710;14.492;2023-04-01T17:17:25;21.73;;;8.68;;
65469;SDS011;52067;50.710;14.492;2023-04-01T17:20:26;16.23;;;7.40;;
65469;SDS011;52067;50.710;14.492;2023-04-01T17:25:43;14.50;;;7.63;;
65469;SDS011;52067;50.710;14.492;2023-04-01T17:28:33;14.57;;;7.40;;
65469;SDS011;52067;50.710;14.492;2023-04-01T17:31:52;14.13;;;7.05;;
65469;SDS011;52067;50.710;14.492;2023-04-01T17:34:12;16.48;;;8.40;;
65469;SDS011;52067;50.710;14.492;2023-04-01T17:50:14;8.00;;;4.70;;
65469;SDS011;52067;50.710;14.492;2023-04-01T17:53:03;11.68;;;6.97;;
65469;SDS011;52067;50.710;14.492;2023-04-01T17:56:04;12.20;;;6.90;;
65469;SDS011;52067;50.710;14.492;2023-04-01T18:04:23;33.40;;;15.55;;
65469;SDS011;52067;50.710;14.492;2023-04-01T18:09:00;53.80;;;22.77;;
65469;SDS011;52067;50.710;14.492;2023-04-01T18:22:55;40.10;;;18.52;;
65469;SDS011;52067;50.710;14.492;2023-04-01T18:25:32;40.75;;;19.92;;
65469;SDS011;52067;50.710;14.492;2023-04-01T18:29:02;31.80;;;17.55;;
65469;SDS011;52067;50.710;14.492;2023-04-01T18:31:21;43.00;;;22.20;;
65469;SDS011;52067;50.710;14.492;2023-04-01T18:47:59;59.15;;;32.63;;
65469;SDS011;52067;50.710;14.492;2023-04-01T18:50:51;58.53;;;32.28;;
65469;SDS011;52067;50.710;14.492;2023-04-01T18:55:59;42.13;;;25.48;;
65469;SDS011;52067;50.710;14.492;2023-04-01T18:58:34;52.15;;;24.83;;
65469;SDS011;52067;50.710;14.492;2023-04-01T19:01:39;45.13;;;26.05;;
65469;SDS011;52067;50.710;14.492;2023-04-01T19:06:54;74.40;;;37.53;;
65469;SDS011;52067;50.710;14.492;2023-04-01T19:09:33;61.33;;;33.33;;
65469;SDS011;52067;50.710;14.492;2023-04-01T19:14:51;66.78;;;33.38;;
65469;SDS011;52067;50.710;14.492;2023-04-01T19:20:10;59.88;;;30.38;;
65469;SDS011;52067;50.710;14.492;2023-04-01T19:27:52;33.20;;;17.45;;
65469;SDS011;52067;50.710;14.492;2023-04-01T19:30:30;43.45;;;21.95;;
65469;SDS011;52067;50.710;14.492;2023-04-01T19:35:52;48.03;;;23.33;;
65469;SDS011;52067;50.710;14.492;2023-04-01T19:51:53;42.95;;;22.55;;
65469;SDS011;52067;50.710;14.492;2023-04-01T20:00:07;28.48;;;16.85;;
65469;SDS011;52067;50.710;14.492;2023-04-01T20:02:54;40.00;;;20.17;;
65469;SDS011;52067;50.710;14.492;2023-04-01T20:17:11;24.73;;;14.05;;
65469;SDS011;52067;50.710;14.492;2023-04-01T20:19:15;29.88;;;15.98;;
65469;SDS011;52067;50.710;14.492;2023-04-01T20:22:04;29.35;;;16.58;;
65469;SDS011;52067;50.710;14.492;2023-04-01T20:24:44;34.67;;;17.35;;
65469;SDS011;52067;50.710;14.492;2023-04-01T20:33:06;29.75;;;15.02;;
65469;SDS011;52067;50.710;14.492;2023-04-01T20:39:18;30.63;;;14.80;;
65469;SDS011;52067;50.710;14.492;2023-04-01T20:53:04;35.45;;;15.13;;
65469;SDS011;52067;50.710;14.492;2023-04-01T21:01:25;34.35;;;15.73;;
65469;SDS011;52067;50.710;14.492;2023-04-01T21:07:23;26.05;;;12.95;;
65469;SDS011;52067;50.710;14.492;2023-04-01T21:16:47;24.70;;;9.88;;
65469;SDS011;52067;50.710;14.492;2023-04-01T21:19:03;20.87;;;9.43;;
65469;SDS011;52067;50.710;14.492;2023-04-01T21:54:03;49.10;;;16.35;;
65469;SDS011;52067;50.710;14.492;2023-04-01T22:18:39;87.70;;;13.68;;
65469;SDS011;52067;50.710;14.492;2023-04-01T22:26:49;59.50;;;14.05;;
65469;SDS011;52067;50.710;14.492;2023-04-01T22:32:00;91.80;;;13.07;;
65469;SDS011;52067;50.710;14.492;2023-04-01T22:37:25;44.75;;;16.23;;
65469;SDS011;52067;50.710;14.492;2023-04-01T22:42:46;53.67;;;20.20;;
65469;SDS011;52067;50.710;14.492;2023-04-01T22:45:21;42.95;;;19.20;;
65469;SDS011;52067;50.710;14.492;2023-04-01T22:50:36;51.05;;;22.63;;
65469;SDS011;52067;50.710;14.492;2023-04-01T22:55:43;40.15;;;19.73;;
65469;SDS011;52067;50.710;14.492;2023-04-01T22:58:12;44.28;;;22.38;;
65469;SDS011;52067;50.710;14.492;2023-04-01T23:00:43;47.70;;;20.70;;
65469;SDS011;52067;50.710;14.492;2023-04-01T23:03:17;52.85;;;25.55;;
65469;SDS011;52067;50.710;14.492;2023-04-01T23:05:57;50.00;;;23.02;;
65469;SDS011;52067;50.710;14.492;2023-04-01T23:11:16;51.05;;;23.58;;
65469;SDS011;52067;50.710;14.492;2023-04-01T23:13:46;27.10;;;13.27;;
65469;SDS011;52067;50.710;14.492;2023-04-01T23:16:20;38.22;;;19.88;;
65469;SDS011;52067;50.710;14.492;2023-04-01T23:21:41;39.47;;;18.92;;
65469;SDS011;52067;50.710;14.492;2023-04-01T23:24:21;39.28;;;17.85;;
65469;SDS011;52067;50.710;14.492;2023-04-01T23:26:55;35.47;;;15.10;;
65469;SDS011;52067;50.710;14.492;2023-04-01T23:29:26;28.58;;;14.43;;
65469;SDS011;52067;50.710;14.492;2023-04-01T23:31:59;25.05;;;11.77;;
65469;SDS011;52067;50.710;14.492;2023-04-01T23:34:27;26.20;;;11.65;;
65469;SDS011;52067;50.710;14.492;2023-04-01T23:37:04;23.30;;;11.75;;
65469;SDS011;52067;50.710;14.492;2023-04-01T23:39:36;23.33;;;11.63;;
65469;SDS011;52067;50.710;14.492;2023-04-01T23:44:37;21.13;;;11.18;;
65469;SDS011;52067;50.710;14.492;2023-04-01T23:47:03;21.58;;;10.75;;
65469;SDS011;52067;50.710;14.492;2023-04-01T23:49:35;19.02;;;10.55;;
65469;SDS011;52067;50.710;14.492;2023-04-01T23:57:41;18.23;;;8.93;;
